Terminal Aerodrome Forecast
Issued by NWS Cleveland, OH

Home | Current Version | Previous Version | Text Only | Print | Product List | Glossary On
Versions: 1 2 3 4 5 6 7 8 9 10 11 12 13 14 15 16 17
000
FTUS41 KCLE 280100 AAA
TAFYNG
TAF AMD
KYNG 280106Z 2801/2824 23010KT 6SM -SHRA OVC030
     FM280300 23010KT 6SM -SHRA SCT015 OVC025
      TEMPO 2804/2807 OVC015
     FM280700 23010KT 6SM -SHRA BKN006 OVC015
      TEMPO 2807/2810 4SM -SHRA
     FM281100 29008KT P6SM SCT006 OVC012
     FM281800 31010KT P6SM OVC020=

USA.gov is the U.S. government's official web portal to all federal, state and local government web resources and services.